Time;durP1;ratioP1;P1;durP2;ratioP2;P2;SDS_P1;SDS_P2;PMS_P1;PMS_P2;Temp;Humidity;BMP_temperature;BMP_pressure;BME280_temperature;BME280_humidity;BME280_pressure;Samples;Min_cycle;Max_cycle;Signal;HPM_P1;HPM_P2
2022/01/11 00:02:02;;;;;;;;;27.75;18.50;;;;;7.51;61.56;102446.78;4992819;28;45846;-66
2022/01/11 00:04:29;;;;;;;;;25.75;22.25;;;;;7.53;61.86;102455.78;5011801;28;45397;-66
2022/01/11 00:06:56;;;;;;;;;22.75;15.75;;;;;7.50;62.01;102442.28;5011783;28;45045;-70
2022/01/11 00:09:23;;;;;;;;;22.00;19.25;;;;;7.44;61.90;102417.03;5000112;28;45279;-66
2022/01/11 00:11:49;;;;;;;;;23.25;16.75;;;;;7.52;62.05;102432.69;4980855;28;47939;-68
2022/01/11 00:14:15;;;;;;;;;24.50;15.00;;;;;7.62;62.11;102449.22;5011664;28;45145;-65
2022/01/11 00:16:40;;;;;;;;;27.25;22.50;;;;;6.74;61.58;102299.91;5011201;28;45281;-65
2022/01/11 00:19:06;;;;;;;;;21.50;19.75;;;;;7.55;61.75;102443.50;5003328;28;45074;-65
2022/01/11 00:21:44;;;;;;;;;20.25;15.75;;;;;7.52;61.61;102458.34;4991877;28;45205;-67
2022/01/11 00:26:53;;;;;;;;;26.25;19.75;;;;;7.32;61.92;102447.28;5005166;28;45039;-66
2022/01/11 00:29:19;;;;;;;;;33.00;20.00;;;;;7.26;61.67;102446.91;4998316;28;45077;-68
2022/01/11 00:31:46;;;;;;;;;21.25;17.50;;;;;7.06;62.53;102434.00;4994876;28;45489;-67
2022/01/11 00:34:13;;;;;;;;;22.75;16.00;;;;;7.15;62.31;102456.78;5014818;28;45112;-67
2022/01/11 00:36:42;;;;;;;;;18.75;12.75;;;;;7.08;62.52;102448.28;5014467;28;45049;-67
2022/01/11 00:39:11;;;;;;;;;21.00;16.00;;;;;7.03;63.17;102453.31;5008407;28;44964;-68
2022/01/11 00:41:41;;;;;;;;;21.75;17.75;;;;;7.10;63.20;102452.00;4995489;28;45550;-66
2022/01/11 00:44:07;;;;;;;;;20.75;13.50;;;;;7.01;62.65;102453.22;4995315;28;45006;-67
2022/01/11 00:46:33;;;;;;;;;21.25;17.00;;;;;6.82;62.72;102427.09;4990871;28;45200;-65
2022/01/11 00:48:59;;;;;;;;;18.50;14.50;;;;;6.96;62.95;102454.66;5001530;28;45174;-66
2022/01/11 00:51:24;;;;;;;;;19.50;16.00;;;;;6.91;63.41;102463.09;4995066;28;45159;-73
2022/01/11 00:53:50;;;;;;;;;16.50;14.50;;;;;6.92;63.57;102454.31;5000802;28;44928;-66
2022/01/11 00:56:15;;;;;;;;;23.25;20.50;;;;;6.81;63.25;102414.66;5014108;28;45021;-65
2022/01/11 00:58:41;;;;;;;;;19.00;16.75;;;;;7.09;62.86;102453.72;5008303;28;45177;-66
2022/01/11 01:01:07;;;;;;;;;22.00;18.00;;;;;7.16;62.53;102445.38;4999906;28;45231;-65
2022/01/11 01:03:33;;;;;;;;;20.00;17.50;;;;;7.15;63.10;102451.47;5002403;28;44900;-65
2022/01/11 01:05:58;;;;;;;;;22.50;17.00;;;;;7.20;62.62;102451.81;4995308;28;45805;-68
2022/01/11 01:08:24;;;;;;;;;25.50;19.75;;;;;6.86;63.04;102382.16;5013577;28;45022;-66
2022/01/11 01:10:50;;;;;;;;;10.50;7.25;;;;;7.24;62.34;102456.50;5013115;28;45542;-66
2022/01/11 01:13:18;;;;;;;;;25.75;16.75;;;;;6.97;62.53;102411.28;5003183;28;45203;-68
2022/01/11 01:15:47;;;;;;;;;24.75;18.00;;;;;7.26;63.16;102472.53;4994281;28;44874;-66
2022/01/11 01:18:15;;;;;;;;;21.75;17.25;;;;;7.30;62.48;102474.59;5004321;28;45173;-65
2022/01/11 01:20:41;;;;;;;;;24.00;18.00;;;;;7.20;62.47;102451.81;4994849;28;45256;-67
2022/01/11 01:23:07;;;;;;;;;27.00;19.75;;;;;7.14;62.35;102430.13;4980593;28;45367;-65
2022/01/11 01:25:32;;;;;;;;;24.50;19.00;;;;;7.27;62.28;102450.47;5004540;28;45102;-69
2022/01/11 01:27:58;;;;;;;;;24.25;17.25;;;;;7.34;62.05;102460.69;4995268;28;45083;-65
2022/01/11 01:30:24;;;;;;;;;28.75;24.25;;;;;7.28;61.96;102466.53;5010129;28;45213;-66
2022/01/11 01:32:51;;;;;;;;;30.50;23.75;;;;;7.20;62.25;102454.47;5004966;28;45372;-67
2022/01/11 01:35:20;;;;;;;;;30.00;22.25;;;;;7.28;62.17;102461.22;4994789;28;45208;-67
2022/01/11 01:37:46;;;;;;;;;26.25;21.75;;;;;7.20;62.09;102475.72;4994863;28;45066;-65
2022/01/11 01:40:13;;;;;;;;;29.50;21.25;;;;;7.10;62.40;102473.25;4996633;28;45603;-66
2022/01/11 01:42:39;;;;;;;;;29.50;24.00;;;;;7.03;62.80;102479.91;5011076;28;45117;-67
2022/01/11 01:45:05;;;;;;;;;31.75;23.00;;;;;6.80;63.01;102451.75;4994336;28;44996;-67
2022/01/11 01:47:31;;;;;;;;;29.75;25.25;;;;;7.06;62.94;102489.78;4994766;28;45055;-65
2022/01/11 01:49:56;;;;;;;;;28.00;23.00;;;;;6.99;63.16;102469.84;4994997;28;46103;-65
2022/01/11 01:52:23;;;;;;;;;29.50;24.50;;;;;7.03;63.01;102449.72;5012204;28;45134;-66
2022/01/11 01:54:50;;;;;;;;;35.75;28.25;;;;;7.25;62.69;102492.00;4994737;28;45145;-72
2022/01/11 01:57:16;;;;;;;;;31.25;24.25;;;;;7.11;62.82;102469.78;4995027;28;45199;-66
2022/01/11 01:59:41;;;;;;;;;37.50;25.75;;;;;7.28;62.84;102486.88;4993628;28;45444;-69
2022/01/11 02:02:09;;;;;;;;;27.50;21.50;;;;;7.33;62.66;102485.47;5000014;28;45777;-66
2022/01/11 02:04:34;;;;;;;;;29.00;23.75;;;;;7.19;62.65;102464.19;4993397;28;45081;-67
2022/01/11 02:07:00;;;;;;;;;29.50;21.50;;;;;7.19;62.69;102472.16;4992001;28;45118;-67
2022/01/11 02:09:25;;;;;;;;;29.00;23.75;;;;;7.29;62.03;102500.28;5007218;28;46462;-66
2022/01/11 02:11:51;;;;;;;;;34.25;26.00;;;;;7.30;62.23;102494.13;5011965;28;45049;-66
2022/01/11 02:14:16;;;;;;;;;29.50;23.25;;;;;7.19;61.96;102468.56;5008117;28;45050;-66
2022/01/11 02:16:41;;;;;;;;;20.25;16.50;;;;;7.38;61.89;102510.63;4996329;28;45202;-67
2022/01/11 02:19:07;;;;;;;;;26.50;24.75;;;;;7.38;61.68;102508.88;4998203;28;45440;-70
2022/01/11 02:21:32;;;;;;;;;26.50;22.50;;;;;7.08;61.70;102469.56;4999595;28;45259;-66
2022/01/11 02:23:59;;;;;;;;;33.25;26.75;;;;;7.17;61.52;102499.44;4994272;28;45070;-66
2022/01/11 02:26:25;;;;;;;;;30.25;23.25;;;;;7.17;61.90;102504.75;4994076;28;45160;-67
2022/01/11 02:28:51;;;;;;;;;31.50;21.25;;;;;7.23;61.77;102506.94;4975567;28;46365;-65
2022/01/11 02:31:18;;;;;;;;;25.75;23.50;;;;;6.96;61.67;102459.00;4989278;28;45054;-70
2022/01/11 02:33:51;;;;;;;;;28.00;19.50;;;;;7.17;61.96;102504.75;4999334;28;44986;-68
2022/01/11 02:36:20;;;;;;;;;32.00;24.00;;;;;7.15;61.79;102509.03;4994913;28;45188;-67
2022/01/11 02:38:50;;;;;;;;;28.00;21.00;;;;;7.10;61.75;102511.38;4995738;28;46010;-70
2022/01/11 02:41:17;;;;;;;;;22.25;20.50;;;;;6.93;61.27;102488.03;5008031;28;45236;-67
2022/01/11 02:43:47;;;;;;;;;27.75;20.00;;;;;7.06;61.72;102506.69;4999613;28;45313;-67
2022/01/11 02:46:13;;;;;;;;;23.50;20.25;;;;;6.95;61.30;102495.31;4991824;28;45047;-67
2022/01/11 02:48:39;;;;;;;;;25.75;19.50;;;;;7.05;61.94;102514.56;4992232;28;45091;-71
2022/01/11 02:51:06;;;;;;;;;17.75;16.00;;;;;6.81;62.19;102504.97;4991260;28;45409;-66
2022/01/11 02:53:31;;;;;;;;;28.25;17.75;;;;;6.81;62.11;102504.97;4996351;28;45225;-69
2022/01/11 02:55:57;;;;;;;;;33.50;22.00;;;;;6.76;62.40;102511.69;4993352;28;45114;-65
2022/01/11 02:58:23;;;;;;;;;20.00;19.25;;;;;6.76;62.63;102513.44;4993331;28;45822;-66
2022/01/11 03:00:48;;;;;;;;;19.75;18.50;;;;;6.67;62.21;102512.81;4993537;28;45191;-69
2022/01/11 03:03:23;;;;;;;;;17.00;17.00;;;;;6.64;62.67;102513.50;4995585;28;45157;-65
2022/01/11 03:05:57;;;;;;;;;22.75;20.25;;;;;6.38;61.87;102454.13;4993827;28;45217;-68
2022/01/11 03:08:25;;;;;;;;;22.00;18.75;;;;;6.70;61.91;102516.59;4993043;28;47173;-68
2022/01/11 03:10:51;;;;;;;;;29.00;22.00;;;;;6.46;62.31;102487.47;4993150;28;45035;-65
2022/01/11 03:13:18;;;;;;;;;23.00;17.00;;;;;6.68;62.10;102526.16;4995707;28;45153;-66
2022/01/11 03:15:45;;;;;;;;;23.00;17.25;;;;;6.16;62.39;102450.78;4995640;28;45129;-66
2022/01/11 03:18:11;;;;;;;;;26.75;19.50;;;;;6.11;62.09;102466.38;4993286;28;45431;-65
2022/01/11 03:20:38;;;;;;;;;17.50;14.75;;;;;6.41;62.67;102490.63;4993061;28;44999;-67
2022/01/11 03:23:05;;;;;;;;;22.00;17.50;;;;;6.23;62.38;102447.75;4999520;28;45114;-66
2022/01/11 03:25:30;;;;;;;;;20.25;18.75;;;;;6.52;62.35;102510.88;4993298;28;45122;-65
2022/01/11 03:27:56;;;;;;;;;35.00;23.25;;;;;6.69;62.23;102540.38;4990932;28;45798;-76
2022/01/11 03:30:22;;;;;;;;;21.50;19.50;;;;;6.35;61.88;102475.19;5011552;28;45233;-71
2022/01/11 03:32:48;;;;;;;;;24.00;24.00;;;;;6.58;61.85;102537.91;5010892;28;44986;-65
2022/01/11 03:35:13;;;;;;;;;31.00;21.50;;;;;6.54;62.30;102551.75;4994685;28;45070;-66
2022/01/11 03:37:42;;;;;;;;;27.25;21.00;;;;;6.53;62.29;102544.56;4992023;28;45353;-64
2022/01/11 03:40:11;;;;;;;;;25.75;20.00;;;;;6.47;62.29;102554.78;4991485;28;45149;-71
2022/01/11 03:42:37;;;;;;;;;21.50;18.00;;;;;6.35;62.94;102544.22;4992428;28;45044;-74
2022/01/11 03:45:05;;;;;;;;;24.50;21.50;;;;;6.44;63.06;102547.50;4996505;28;45096;-66
2022/01/11 03:47:31;;;;;;;;;27.50;24.00;;;;;5.98;62.16;102453.94;4997492;28;45889;-68
2022/01/11 03:49:56;;;;;;;;;28.25;21.25;;;;;6.52;62.50;102556.03;4992802;28;45042;-66
2022/01/11 03:52:22;;;;;;;;;22.50;13.25;;;;;6.24;62.77;102500.94;4992713;28;45638;-73
2022/01/11 03:57:23;;;;;;;;;20.75;18.50;;;;;6.55;61.91;102565.94;4999093;28;45295;-68
2022/01/11 03:59:48;;;;;;;;;19.00;17.25;;;;;6.49;61.90;102544.28;4997018;28;45234;-66
2022/01/11 04:02:14;;;;;;;;;30.25;25.75;;;;;6.50;62.12;102512.53;4993561;28;45192;-65
2022/01/11 04:04:39;;;;;;;;;24.25;19.25;;;;;6.41;61.80;102482.66;4993769;28;45070;-65
2022/01/11 04:07:05;;;;;;;;;23.75;18.25;;;;;6.36;61.58;102487.63;4997939;28;45607;-70
2022/01/11 04:09:30;;;;;;;;;17.00;13.75;;;;;6.64;61.84;102532.06;4993417;28;45135;-66
2022/01/11 04:11:56;;;;;;;;;18.75;17.25;;;;;6.76;61.90;102548.88;4999182;28;45378;-65
2022/01/11 04:14:25;;;;;;;;;23.25;19.25;;;;;6.79;61.73;102541.13;4996717;28;46067;-67
2022/01/11 04:16:51;;;;;;;;;25.50;19.00;;;;;6.39;62.11;102478.97;4993974;28;45592;-68
2022/01/11 04:19:17;;;;;;;;;18.50;16.50;;;;;6.73;61.73;102546.03;5011007;28;44919;-66
2022/01/11 04:21:42;;;;;;;;;24.25;16.75;;;;;6.61;61.60;102531.84;5011199;28;45150;-73
2022/01/11 04:24:11;;;;;;;;;23.75;18.00;;;;;6.69;61.54;102535.97;5010479;28;45372;-66
2022/01/11 04:26:36;;;;;;;;;18.00;15.75;;;;;6.66;61.62;102546.38;4992626;28;46146;-66
2022/01/11 04:29:01;;;;;;;;;22.75;20.25;;;;;6.77;61.51;102564.00;4991371;28;45045;-65
2022/01/11 04:31:27;;;;;;;;;25.00;22.50;;;;;6.60;61.54;102554.84;5002556;28;45104;-66
2022/01/11 04:33:52;;;;;;;;;17.25;15.75;;;;;6.52;62.08;102552.47;4994142;28;45090;-67
2022/01/11 04:36:17;;;;;;;;;21.50;16.50;;;;;6.55;62.19;102560.63;4992866;28;45658;-67
2022/01/11 04:38:43;;;;;;;;;19.75;14.25;;;;;6.35;61.61;102532.63;4993844;28;45233;-68
2022/01/11 04:41:09;;;;;;;;;13.25;13.25;;;;;6.33;62.14;102556.41;4991873;28;45039;-66
2022/01/11 04:43:34;;;;;;;;;22.75;17.75;;;;;6.19;62.64;102542.16;4992785;28;44941;-66
2022/01/11 04:46:00;;;;;;;;;19.00;18.50;;;;;5.95;62.61;102498.78;4996123;28;45842;-66
2022/01/11 04:48:26;;;;;;;;;25.75;21.00;;;;;6.14;63.22;102550.56;5011066;28;45110;-65
2022/01/11 04:50:52;;;;;;;;;25.00;19.00;;;;;6.07;63.36;102558.09;5011075;28;44952;-66
2022/01/11 04:53:17;;;;;;;;;22.50;20.00;;;;;6.05;63.56;102556.13;5010158;28;44942;-70
2022/01/11 04:55:43;;;;;;;;;19.00;14.75;;;;;5.95;63.90;102570.41;5009324;28;45642;-67
2022/01/11 04:58:08;;;;;;;;;24.50;17.00;;;;;5.45;63.36;102485.38;4992150;28;44879;-73
2022/01/11 05:00:35;;;;;;;;;29.00;25.50;;;;;5.89;63.20;102562.94;4984463;28;45203;-65
2022/01/11 05:03:00;;;;;;;;;24.75;20.75;;;;;6.07;62.97;102581.03;4992133;28;45054;-67
2022/01/11 05:05:28;;;;;;;;;19.25;16.25;;;;;6.07;63.06;102596.97;4993480;28;45820;-74
2022/01/11 05:07:54;;;;;;;;;25.50;17.50;;;;;6.07;63.06;102584.63;4992094;28;45053;-64
2022/01/11 05:10:19;;;;;;;;;22.75;18.75;;;;;6.13;63.20;102589.47;4991851;28;45088;-77
2022/01/11 05:12:45;;;;;;;;;26.75;19.50;;;;;5.93;62.13;102557.84;4991704;28;44983;-64
2022/01/11 05:15:12;;;;;;;;;31.00;24.75;;;;;5.86;62.77;102564.44;4996627;28;45885;-65
2022/01/11 05:17:39;;;;;;;;;21.25;18.00;;;;;5.73;63.16;102552.91;4994513;28;45270;-65
2022/01/11 05:20:05;;;;;;;;;25.00;19.00;;;;;5.51;62.99;102497.34;5010706;28;44911;-73
2022/01/11 05:22:31;;;;;;;;;22.25;18.00;;;;;5.85;62.55;102544.94;5007328;28;45264;-71
2022/01/11 05:24:57;;;;;;;;;22.75;19.00;;;;;6.04;63.02;102581.75;4993524;28;45422;-66
2022/01/11 05:27:22;;;;;;;;;31.00;24.00;;;;;5.68;62.69;102516.25;4992627;28;45204;-65
2022/01/11 05:29:48;;;;;;;;;19.50;18.00;;;;;5.92;62.52;102543.66;4992321;28;45299;-66
2022/01/11 05:32:13;;;;;;;;;33.50;21.25;;;;;5.72;62.40;102511.28;4996191;28;44949;-66
2022/01/11 05:34:39;;;;;;;;;29.50;23.75;;;;;6.18;62.02;102605.75;4992519;28;46557;-67
2022/01/11 05:37:04;;;;;;;;;27.75;20.25;;;;;5.98;62.12;102570.69;4987676;28;48575;-72
2022/01/11 05:42:06;;;;;;;;;31.75;25.25;;;;;6.12;62.44;102597.31;5125480;23;45466;-64
2022/01/11 05:44:33;;;;;;;;;34.75;26.25;;;;;6.11;62.13;102601.72;4918666;28;46230;-69
2022/01/11 05:46:58;;;;;;;;;27.75;23.50;;;;;6.16;61.74;102615.31;4919423;28;45456;-66
2022/01/11 05:49:24;;;;;;;;;32.00;27.50;;;;;6.04;61.52;102595.03;4919321;28;45330;-67
2022/01/11 05:51:49;;;;;;;;;30.25;23.25;;;;;6.14;61.52;102604.59;4919807;28;45398;-67
2022/01/11 05:54:14;;;;;;;;;30.75;26.00;;;;;6.17;61.12;102607.47;4919238;28;45893;-66
2022/01/11 05:56:40;;;;;;;;;40.50;24.00;;;;;6.08;61.30;102591.78;4927319;28;45686;-74
2022/01/11 05:59:05;;;;;;;;;32.25;25.75;;;;;6.09;61.45;102608.63;4937709;28;45543;-68
2022/01/11 06:01:33;;;;;;;;;33.75;25.25;;;;;5.94;61.76;102616.34;4937570;28;45539;-70
2022/01/11 06:03:58;;;;;;;;;38.75;23.25;;;;;5.79;61.99;102618.75;4921794;28;46157;-66
2022/01/11 06:06:23;;;;;;;;;35.25;24.50;;;;;5.60;62.73;102594.28;4918864;28;45482;-65
2022/01/11 06:08:49;;;;;;;;;23.50;20.00;;;;;5.79;62.51;102623.13;4901855;28;46037;-66
2022/01/11 06:11:14;;;;;;;;;35.50;24.25;;;;;5.80;62.44;102632.94;4929786;28;45350;-66
2022/01/11 06:13:40;;;;;;;;;22.25;18.00;;;;;5.84;62.41;102640.31;4933909;28;45651;-65
2022/01/11 06:16:05;;;;;;;;;27.75;22.75;;;;;5.84;62.48;102654.50;4947580;28;45054;-66
2022/01/11 06:18:30;;;;;;;;;34.50;26.50;;;;;5.65;62.16;102611.47;4935470;28;45204;-66
2022/01/11 06:20:56;;;;;;;;;26.25;23.50;;;;;5.69;62.25;102625.09;4938415;28;44951;-65
2022/01/11 06:23:21;;;;;;;;;24.00;21.00;;;;;5.68;61.94;102620.59;4935334;28;45655;-67
2022/01/11 06:25:47;;;;;;;;;34.50;23.00;;;;;5.81;61.42;102643.66;4940211;28;44998;-65
2022/01/11 06:28:12;;;;;;;;;23.25;18.75;;;;;5.72;61.86;102638.59;4933452;28;45150;-65
2022/01/11 06:30:40;;;;;;;;;27.25;22.00;;;;;5.83;61.90;102639.38;4934365;28;45742;-68
2022/01/11 06:33:06;;;;;;;;;27.00;20.25;;;;;5.89;60.94;102645.16;4935200;28;45738;-65
2022/01/11 06:35:31;;;;;;;;;27.00;18.00;;;;;5.75;60.95;102623.72;4929027;28;45295;-65
2022/01/11 06:37:56;;;;;;;;;26.25;20.25;;;;;5.65;60.54;102606.19;4932527;28;45573;-65
2022/01/11 06:40:22;;;;;;;;;32.75;26.25;;;;;5.85;60.92;102640.41;4952004;28;45031;-65
2022/01/11 06:42:51;;;;;;;;;32.50;30.00;;;;;5.76;60.81;102633.50;4942982;28;45691;-66
2022/01/11 06:45:16;;;;;;;;;36.50;28.75;;;;;5.72;61.43;102643.91;4938612;28;45515;-68
2022/01/11 06:47:42;;;;;;;;;39.75;29.75;;;;;5.59;61.95;102630.47;4939218;28;45008;-66
2022/01/11 06:50:08;;;;;;;;;53.50;30.25;;;;;5.46;61.93;102627.69;4937311;28;45342;-72
2022/01/11 06:52:35;;;;;;;;;35.25;28.50;;;;;5.60;61.86;102669.44;4927270;28;46468;-70
2022/01/11 06:55:00;;;;;;;;;25.00;22.75;;;;;5.50;62.08;102669.53;4943385;28;45034;-70
2022/01/11 06:57:27;;;;;;;;;33.50;27.25;;;;;5.47;61.96;102659.63;4917285;28;45140;-70
2022/01/11 06:59:52;;;;;;;;;32.75;25.25;;;;;5.41;61.90;102648.56;4937986;28;45516;-71
2022/01/11 07:02:18;;;;;;;;;38.75;31.25;;;;;5.32;62.43;102639.88;4941063;28;45680;-69
2022/01/11 07:04:44;;;;;;;;;44.00;29.25;;;;;5.28;63.20;102648.38;4933837;28;45219;-71
2022/01/11 07:07:09;;;;;;;;;46.00;30.00;;;;;5.26;62.68;102656.25;4936254;28;45722;-71
2022/01/11 07:09:35;;;;;;;;;41.00;34.75;;;;;5.16;63.51;102666.88;4932219;28;45665;-73
2022/01/11 07:12:01;;;;;;;;;38.00;34.50;;;;;5.06;63.72;102659.94;4932871;28;46265;-72
2022/01/11 07:14:27;;;;;;;;;35.00;26.50;;;;;5.12;63.66;102678.06;4941106;28;45049;-69
2022/01/11 07:16:52;;;;;;;;;36.75;27.00;;;;;5.02;63.62;102664.88;4937622;28;45124;-71
2022/01/11 07:19:19;;;;;;;;;34.00;26.25;;;;;5.01;64.16;102661.28;4939229;28;45029;-71
2022/01/11 07:21:45;;;;;;;;;37.25;27.75;;;;;5.15;64.19;102686.25;4941648;28;45225;-71
2022/01/11 07:24:19;;;;;;;;;44.25;37.75;;;;;5.07;63.05;102674.13;4932370;28;45560;-72
2022/01/11 07:26:45;;;;;;;;;35.25;27.50;;;;;5.15;63.19;102686.25;4917784;28;45452;-73
2022/01/11 07:29:10;;;;;;;;;32.75;26.75;;;;;4.80;63.55;102621.72;4927494;28;45291;-70
2022/01/11 07:31:38;;;;;;;;;38.75;33.75;;;;;5.09;63.09;102661.91;4925403;28;46745;-71
2022/01/11 07:34:04;;;;;;;;;54.75;37.25;;;;;5.17;62.70;102682.00;4922419;28;45746;-71
2022/01/11 07:36:30;;;;;;;;;32.50;26.75;;;;;5.26;62.93;102698.63;4925813;28;45717;-73
2022/01/11 07:38:55;;;;;;;;;35.25;27.50;;;;;5.26;61.90;102693.34;4926342;28;45460;-72
2022/01/11 07:41:21;;;;;;;;;41.50;36.25;;;;;5.39;62.69;102720.78;4935043;28;46171;-72
2022/01/11 07:43:46;;;;;;;;;44.25;34.75;;;;;5.15;62.52;102695.13;4932939;28;45525;-70
2022/01/11 07:46:12;;;;;;;;;43.25;39.75;;;;;5.20;62.53;102707.78;4922809;28;45193;-71
2022/01/11 07:48:37;;;;;;;;;50.25;30.50;;;;;5.12;62.45;102686.91;4925285;28;45162;-73
2022/01/11 07:51:03;;;;;;;;;36.50;29.00;;;;;5.13;62.22;102682.53;4918963;28;48359;-70
2022/01/11 07:53:28;;;;;;;;;41.25;33.25;;;;;5.37;62.57;102715.38;4927590;28;45568;-72
2022/01/11 07:55:54;;;;;;;;;44.75;33.25;;;;;5.06;62.16;102666.97;4935579;28;46345;-72
2022/01/11 07:58:20;;;;;;;;;42.75;31.75;;;;;5.36;63.03;102700.25;4934861;28;45361;-70
2022/01/11 08:00:45;;;;;;;;;41.25;31.50;;;;;5.59;62.51;102731.22;4924387;28;45551;-70
2022/01/11 08:03:11;;;;;;;;;52.50;34.25;;;;;5.59;61.72;102722.34;4933370;28;45335;-70
2022/01/11 08:05:37;;;;;;;;;42.75;34.00;;;;;5.70;62.10;102722.38;4930479;28;45618;-71
2022/01/11 08:08:02;;;;;;;;;37.75;30.00;;;;;5.71;61.18;102723.34;4937254;28;45789;-71
2022/01/11 08:10:28;;;;;;;;;55.25;37.25;;;;;5.63;61.66;102732.41;4935017;28;46170;-73
2022/01/11 08:12:53;;;;;;;;;50.25;35.00;;;;;5.64;61.35;102734.25;4944474;28;45073;-73
2022/01/11 08:15:20;;;;;;;;;57.50;37.75;;;;;5.51;61.96;102735.00;4936870;28;45366;-71
2022/01/11 08:17:46;;;;;;;;;44.75;35.00;;;;;5.35;61.62;102722.28;4946986;28;45341;-71
2022/01/11 08:20:12;;;;;;;;;54.00;38.75;;;;;5.21;62.14;102713.22;4932703;28;45691;-72
2022/01/11 08:22:38;;;;;;;;;49.75;37.00;;;;;5.25;62.36;102736.53;4923789;28;45941;-72
2022/01/11 08:25:04;;;;;;;;;43.75;32.25;;;;;5.37;62.22;102768.38;4925739;28;45463;-71
2022/01/11 08:27:31;;;;;;;;;41.25;37.25;;;;;5.31;62.44;102771.47;4909065;28;45649;-73
2022/01/11 08:29:56;;;;;;;;;40.25;34.25;;;;;5.35;62.82;102762.97;4912955;28;47162;-72
2022/01/11 08:32:22;;;;;;;;;45.25;36.00;;;;;5.44;62.67;102764.50;4926516;28;45450;-70
2022/01/11 08:34:48;;;;;;;;;33.00;28.50;;;;;5.53;62.54;102771.44;4934428;28;45355;-71
2022/01/11 08:37:14;;;;;;;;;37.75;31.50;;;;;5.53;62.30;102758.19;4937952;28;45489;-71
2022/01/11 08:39:40;;;;;;;;;38.00;28.25;;;;;5.49;62.57;102744.56;4938429;28;45650;-72
2022/01/11 08:42:08;;;;;;;;;45.75;36.75;;;;;5.39;62.15;102718.16;4932405;28;45978;-71
2022/01/11 08:44:34;;;;;;;;;37.50;32.50;;;;;5.72;61.91;102773.84;4928285;28;45283;-67
2022/01/11 08:46:59;;;;;;;;;34.00;28.75;;;;;5.20;61.92;102681.28;4928532;28;45462;-66
2022/01/11 08:49:25;;;;;;;;;43.00;36.25;;;;;5.68;61.86;102769.09;4933552;28;45536;-67
2022/01/11 08:51:50;;;;;;;;;39.50;35.25;;;;;5.67;62.15;102767.22;4937290;28;45362;-69
2022/01/11 08:54:18;;;;;;;;;59.75;40.25;;;;;5.59;61.76;102755.09;4939039;28;45631;-69
2022/01/11 08:56:44;;;;;;;;;41.25;34.00;;;;;5.45;61.97;102734.53;4922477;28;45617;-67
2022/01/11 08:59:10;;;;;;;;;41.25;35.25;;;;;5.44;61.99;102748.59;4932439;28;46200;-68
2022/01/11 09:01:36;;;;;;;;;67.50;44.25;;;;;5.58;61.93;102781.53;4931572;28;45385;-67
2022/01/11 09:04:02;;;;;;;;;68.50;53.25;;;;;5.37;62.74;102748.91;4952707;28;45078;-66
2022/01/11 09:06:27;;;;;;;;;37.25;32.50;;;;;5.46;62.31;102774.44;4928585;28;45399;-67
2022/01/11 09:08:53;;;;;;;;;51.25;38.25;;;;;5.44;62.95;102776.00;4931518;28;45509;-67
2022/01/11 09:11:18;;;;;;;;;43.50;36.50;;;;;5.49;63.17;102774.69;4929701;28;45523;-66
2022/01/11 09:13:44;;;;;;;;;44.75;35.25;;;;;5.46;62.91;102786.75;4927959;28;45626;-67
2022/01/11 09:16:11;;;;;;;;;48.25;37.75;;;;;5.37;62.99;102763.09;4924272;28;45614;-67
2022/01/11 09:18:37;;;;;;;;;50.75;37.50;;;;;5.46;63.03;102786.75;4922927;28;46271;-68
2022/01/11 09:21:03;;;;;;;;;55.75;42.00;;;;;5.30;62.32;102736.91;4927286;28;45454;-68
2022/01/11 09:23:29;;;;;;;;;52.75;37.00;;;;;5.55;62.03;102792.78;4923661;28;45490;-67
2022/01/11 09:25:55;;;;;;;;;52.25;40.00;;;;;5.52;62.34;102773.97;4929703;28;45443;-66
2022/01/11 09:28:21;;;;;;;;;55.00;38.50;;;;;5.14;62.02;102695.91;4921984;28;45600;-76
2022/01/11 09:30:47;;;;;;;;;55.75;34.75;;;;;5.63;61.82;102786.38;4922109;28;45511;-76
2022/01/11 09:33:13;;;;;;;;;56.75;37.25;;;;;5.67;61.81;102777.84;4900661;28;45721;-74
2022/01/11 09:35:38;;;;;;;;;59.25;39.75;;;;;5.60;62.08;102778.16;4930040;28;45375;-75
2022/01/11 09:38:03;;;;;;;;;61.75;39.75;;;;;5.82;62.21;102802.00;4928394;28;46110;-74
2022/01/11 09:40:29;;;;;;;;;54.25;41.50;;;;;5.60;61.82;102761.34;4926051;28;45552;-74
2022/01/11 09:42:54;;;;;;;;;57.25;43.75;;;;;5.77;62.12;102802.44;4935679;28;45831;-75
2022/01/11 09:45:20;;;;;;;;;57.25;42.75;;;;;5.53;61.74;102781.16;4930159;28;45552;-73
2022/01/11 09:47:48;;;;;;;;;59.25;43.50;;;;;5.13;62.32;102711.69;4928374;28;45272;-75
2022/01/11 09:50:16;;;;;;;;;59.50;43.00;;;;;5.71;62.10;102811.75;4922386;28;45691;-74
2022/01/11 09:52:46;;;;;;;;;50.25;41.25;;;;;5.37;61.93;102763.09;4928934;28;45564;-76
2022/01/11 09:55:13;;;;;;;;;54.75;40.00;;;;;5.51;61.56;102796.94;4925699;28;45597;-76
2022/01/11 09:57:41;;;;;;;;;59.25;39.25;;;;;5.27;62.20;102756.13;4933663;28;45366;-76
2022/01/11 10:00:09;;;;;;;;;50.50;33.00;;;;;5.31;62.06;102789.09;4918389;28;45621;-75
2022/01/11 10:02:34;;;;;;;;;50.25;36.25;;;;;5.53;62.28;102821.81;4926522;28;45598;-75
2022/01/11 10:05:05;;;;;;;;;53.75;38.50;;;;;5.54;62.76;102821.03;4926873;28;45446;-75
2022/01/11 10:07:40;;;;;;;;;53.50;37.75;;;;;5.30;62.28;102772.28;4930400;28;45925;-74
2022/01/11 10:10:26;;;;;;;;;54.00;40.50;;;;;5.56;62.57;102821.16;4931376;28;45505;-75
2022/01/11 10:12:55;;;;;;;;;56.50;40.50;;;;;5.63;61.83;102815.53;4936408;28;45713;-74
2022/01/11 10:15:33;;;;;;;;;51.25;36.50;;;;;5.67;62.13;102817.63;4930769;28;45540;-75
2022/01/11 10:18:02;;;;;;;;;60.00;44.25;;;;;5.33;61.94;102756.63;4931958;28;46019;-76
2022/01/11 10:20:27;;;;;;;;;54.75;41.50;;;;;5.53;61.78;102807.66;4918233;28;45501;-75
2022/01/11 10:23:00;;;;;;;;;45.25;37.50;;;;;5.58;61.66;102835.47;4922706;28;45450;-76
2022/01/11 10:25:27;;;;;;;;;43.00;26.50;;;;;5.09;62.08;102752.00;4918574;28;45380;-75
2022/01/11 10:28:01;;;;;;;;;44.25;35.25;;;;;5.20;61.89;102775.00;4922705;28;45679;-77
2022/01/11 10:30:27;;;;;;;;;49.25;36.75;;;;;5.45;62.78;102837.94;4917306;28;45397;-76
2022/01/11 10:32:56;;;;;;;;;43.75;31.50;;;;;5.25;62.37;102818.69;4926069;28;45537;-74
2022/01/11 10:35:42;;;;;;;;;39.75;31.25;;;;;5.48;63.00;102844.41;4926818;28;45324;-75
2022/01/11 10:38:22;;;;;;;;;52.25;38.50;;;;;5.59;62.89;102833.72;4927115;28;46202;-74
2022/01/11 10:40:48;;;;;;;;;51.25;32.50;;;;;5.56;62.68;102814.91;4909542;28;45620;-74
2022/01/11 10:43:16;;;;;;;;;54.75;39.25;;;;;5.49;62.06;102805.53;4918830;28;45553;-77
2022/01/11 10:45:48;;;;;;;;;44.25;33.00;;;;;5.61;62.12;102830.41;4923832;28;45487;-77
2022/01/11 10:48:27;;;;;;;;;57.75;36.75;;;;;5.23;61.79;102766.34;4925682;28;45796;-79
2022/01/11 10:51:01;;;;;;;;;45.75;37.00;;;;;5.34;62.08;102771.69;4914774;28;45570;-79
2022/01/11 10:53:32;;;;;;;;;45.25;33.00;;;;;5.13;61.64;102709.03;4921454;28;45369;-78
2022/01/11 10:56:01;;;;;;;;;53.25;42.25;;;;;5.69;61.44;102816.03;4925324;28;45708;-77
2022/01/11 10:58:32;;;;;;;;;43.75;37.50;;;;;5.75;61.65;102826.19;4921731;28;45678;-79
2022/01/11 11:00:58;;;;;;;;;38.00;29.75;;;;;5.78;61.85;102837.03;4928022;28;45446;-78
2022/01/11 11:03:26;;;;;;;;;35.25;28.25;;;;;5.38;61.85;102762.28;4936640;28;45316;-78
2022/01/11 11:06:07;;;;;;;;;51.00;38.00;;;;;5.91;61.77;102841.59;4930188;28;45645;-79
2022/01/11 11:08:41;;;;;;;;;47.75;37.00;;;;;5.91;61.52;102844.25;4929190;28;46120;-78
2022/01/11 11:11:09;;;;;;;;;52.50;36.75;;;;;5.97;61.45;102842.09;4925315;28;45402;-78
2022/01/11 11:13:43;;;;;;;;;46.00;38.00;;;;;5.57;61.44;102793.81;4935535;28;45756;-79
2022/01/11 11:16:21;;;;;;;;;37.50;35.50;;;;;5.88;61.57;102826.34;4935013;28;45465;-77
2022/01/11 11:18:55;;;;;;;;;34.00;33.75;;;;;6.05;61.34;102838.31;4929781;28;45600;-79
2022/01/11 11:21:38;;;;;;;;;48.00;37.75;;;;;5.96;61.21;102848.22;4930763;28;45548;-79
2022/01/11 11:24:08;;;;;;;;;45.25;36.75;;;;;5.96;61.46;102848.22;4929285;28;45478;-80